Time;durP1;ratioP1;P1;durP2;ratioP2;P2;SDS_P1;SDS_P2;PMS_P1;PMS_P2;Temp;Humidity;BMP_temperature;BMP_pressure;BME280_temperature;BME280_humidity;BME280_pressure;Samples;Min_cycle;Max_cycle;Signal;HPM_P1;HPM_P2
2022/05/07 00:00:41;;;;;;;23.48;17.05;;;12.60;99.90;;;;;;4840299;29;20138;-71
2022/05/07 00:03:07;;;;;;;25.17;18.25;;;12.60;99.90;;;;;;4826218;29;20096;-71
2022/05/07 00:05:33;;;;;;;25.30;18.58;;;12.60;99.90;;;;;;4826024;29;20054;-71
2022/05/07 00:07:58;;;;;;;25.15;19.15;;;12.70;99.90;;;;;;4825951;29;20103;-71
2022/05/07 00:10:24;;;;;;;26.80;19.00;;;12.60;99.90;;;;;;4825940;29;20077;-73
2022/05/07 00:12:50;;;;;;;26.77;19.45;;;12.60;99.90;;;;;;4826343;29;20053;-71
2022/05/07 00:15:16;;;;;;;25.38;18.38;;;12.60;99.90;;;;;;4810039;29;20056;-71
2022/05/07 00:20:27;;;;;;;25.73;19.70;;;12.60;99.90;;;;;;4825916;29;20058;-71
2022/05/07 00:22:54;;;;;;;27.52;20.23;;;12.60;99.90;;;;;;4824170;29;20727;-73
2022/05/07 00:25:20;;;;;;;27.30;19.35;;;12.60;99.90;;;;;;4826122;29;20399;-72
2022/05/07 00:27:45;;;;;;;28.80;20.30;;;12.60;99.90;;;;;;4824704;29;20067;-72
2022/05/07 00:30:12;;;;;;;27.08;20.35;;;12.60;99.90;;;;;;4825637;29;20050;-72
2022/05/07 00:32:37;;;;;;;26.10;20.48;;;12.70;99.90;;;;;;4824798;29;20057;-73
2022/05/07 00:35:03;;;;;;;26.25;19.60;;;12.60;99.90;;;;;;4824625;29;20106;-72
2022/05/07 00:37:29;;;;;;;33.42;21.63;;;12.70;99.90;;;;;;4825029;29;20115;-73
2022/05/07 00:39:54;;;;;;;27.75;20.95;;;12.70;99.90;;;;;;4825057;29;20139;-73
2022/05/07 00:42:20;;;;;;;30.02;20.08;;;12.70;99.90;;;;;;4824459;29;20050;-72
2022/05/07 00:44:46;;;;;;;31.20;21.20;;;12.70;99.90;;;;;;4825474;29;20081;-73
2022/05/07 00:47:30;;;;;;;29.42;19.90;;;12.80;99.90;;;;;;4824412;29;20483;-73
2022/05/07 00:51:33;;;;;;;29.73;21.65;;;12.80;99.90;;;;;;4825372;29;20458;-73
2022/05/07 00:52:43;;;;;;;29.20;20.52;;;12.80;99.90;;;;;;4825228;29;20599;-73
2022/05/07 00:55:11;;;;;;;28.52;20.95;;;12.80;99.90;;;;;;4825563;29;20062;-72
2022/05/07 00:57:37;;;;;;;29.98;20.80;;;12.80;99.90;;;;;;4825399;29;20053;-73
2022/05/07 01:00:04;;;;;;;29.48;22.08;;;12.80;99.90;;;;;;4824269;29;20054;-72
2022/05/07 01:02:30;;;;;;;28.48;20.30;;;12.80;99.90;;;;;;4824592;29;20065;-73
2022/05/07 01:04:57;;;;;;;28.25;20.88;;;12.80;99.90;;;;;;4825379;29;20057;-73
2022/05/07 01:07:22;;;;;;;33.40;21.15;;;12.80;99.90;;;;;;4825211;29;20137;-73
2022/05/07 01:09:49;;;;;;;29.08;21.42;;;12.90;99.90;;;;;;4825404;29;20133;-73
2022/05/07 01:12:16;;;;;;;33.95;21.48;;;12.90;99.90;;;;;;4825222;29;20166;-73
2022/05/07 01:14:42;;;;;;;30.33;21.10;;;13.00;99.90;;;;;;4825024;29;20042;-73
2022/05/07 01:17:08;;;;;;;29.05;21.30;;;12.90;99.90;;;;;;4824856;29;20123;-73
2022/05/07 01:19:33;;;;;;;32.92;21.77;;;13.00;99.90;;;;;;4825259;29;20392;-73
2022/05/07 01:22:01;;;;;;;34.20;22.27;;;13.00;99.90;;;;;;4825183;29;20184;-73
2022/05/07 01:24:27;;;;;;;31.52;22.27;;;13.00;99.90;;;;;;4823711;29;20054;-73
2022/05/07 01:26:52;;;;;;;30.38;21.83;;;13.00;99.90;;;;;;4824856;29;20440;-73
2022/05/07 01:29:18;;;;;;;29.48;21.73;;;13.00;99.90;;;;;;4824780;29;20056;-73
2022/05/07 01:31:44;;;;;;;33.00;21.38;;;13.00;99.90;;;;;;4825265;29;20470;-73
2022/05/07 01:34:10;;;;;;;33.20;22.70;;;13.00;99.90;;;;;;4825003;29;20093;-73
2022/05/07 01:36:36;;;;;;;36.00;22.65;;;13.00;99.90;;;;;;4825085;29;20070;-73
2022/05/07 01:39:02;;;;;;;30.08;22.05;;;13.00;99.90;;;;;;4823888;29;20487;-73
2022/05/07 01:41:27;;;;;;;32.65;21.58;;;13.00;99.90;;;;;;4824804;29;20082;-73
2022/05/07 01:43:53;;;;;;;30.45;22.00;;;13.00;99.90;;;;;;4838572;29;20061;-73
2022/05/07 01:49:04;;;;;;;31.17;22.50;;;13.00;99.90;;;;;;4824954;29;20054;-73
2022/05/07 01:51:29;;;;;;;33.30;22.42;;;12.90;99.90;;;;;;4824712;29;20050;-73
2022/05/07 01:53:55;;;;;;;33.10;22.50;;;12.90;99.90;;;;;;4823135;29;20145;-74
2022/05/07 01:56:21;;;;;;;31.33;22.48;;;12.90;99.90;;;;;;4824620;29;20191;-73
2022/05/07 01:58:48;;;;;;;35.65;23.98;;;12.90;99.90;;;;;;4824795;29;20047;-73
2022/05/07 02:01:14;;;;;;;32.22;22.23;;;12.90;99.90;;;;;;4823492;29;20147;-73
2022/05/07 02:03:40;;;;;;;37.13;24.02;;;12.90;99.90;;;;;;4824594;29;20187;-73
2022/05/07 02:06:05;;;;;;;35.47;24.25;;;12.90;99.90;;;;;;4824462;29;20137;-73
2022/05/07 02:08:31;;;;;;;34.30;22.90;;;12.90;99.90;;;;;;4824479;29;20058;-73
2022/05/07 02:11:01;;;;;;;37.45;24.17;;;12.80;99.90;;;;;;4823383;29;20087;-73
2022/05/07 02:13:28;;;;;;;30.95;23.15;;;12.80;99.90;;;;;;4829579;29;20057;-74
2022/05/07 02:15:54;;;;;;;33.28;24.02;;;12.80;99.90;;;;;;4829611;29;20222;-74
2022/05/07 02:18:20;;;;;;;35.60;24.25;;;12.80;99.90;;;;;;4814281;29;20054;-74
2022/05/07 02:20:47;;;;;;;31.80;23.67;;;12.80;99.90;;;;;;4829316;29;20049;-74
2022/05/07 02:23:12;;;;;;;37.97;25.45;;;12.80;99.90;;;;;;4813654;29;20054;-75
2022/05/07 02:25:38;;;;;;;38.53;24.92;;;12.80;99.90;;;;;;4829955;29;20073;-74
2022/05/07 02:28:05;;;;;;;36.92;26.00;;;12.80;99.90;;;;;;4830908;29;20067;-74
2022/05/07 02:30:31;;;;;;;33.95;25.05;;;12.80;99.90;;;;;;4829310;29;20050;-74
2022/05/07 02:32:56;;;;;;;38.67;26.10;;;12.80;99.90;;;;;;4844268;29;20464;-74
2022/05/07 02:35:22;;;;;;;33.38;25.33;;;12.80;99.90;;;;;;4829429;29;20085;-74
2022/05/07 02:37:48;;;;;;;35.47;25.65;;;12.80;99.90;;;;;;4829064;29;20491;-74
2022/05/07 02:40:14;;;;;;;39.25;25.45;;;12.80;99.90;;;;;;4829075;29;20100;-74
2022/05/07 02:42:40;;;;;;;36.25;25.30;;;12.90;99.90;;;;;;4828767;29;20467;-75
2022/05/07 02:45:10;;;;;;;35.50;24.50;;;12.90;99.90;;;;;;4830153;29;20140;-74
2022/05/07 02:47:38;;;;;;;37.58;25.23;;;12.80;99.90;;;;;;4830346;29;20137;-74
2022/05/07 02:50:06;;;;;;;36.28;24.75;;;12.80;99.90;;;;;;4830159;29;20050;-74
2022/05/07 02:52:35;;;;;;;38.50;25.55;;;12.80;99.90;;;;;;4829269;29;20050;-74
2022/05/07 02:55:02;;;;;;;37.40;24.75;;;12.90;99.90;;;;;;4828776;29;20057;-74
2022/05/07 02:57:28;;;;;;;37.65;25.95;;;12.90;99.90;;;;;;4829166;29;20117;-74
2022/05/07 02:59:54;;;;;;;30.40;23.60;;;12.90;99.90;;;;;;4814042;29;20054;-74
2022/05/07 03:02:20;;;;;;;38.50;25.90;;;12.90;99.90;;;;;;4829898;29;20073;-74
2022/05/07 03:04:47;;;;;;;37.65;25.13;;;12.90;99.90;;;;;;4844011;29;20057;-74
2022/05/07 03:07:14;;;;;;;37.65;25.25;;;12.90;99.90;;;;;;4828544;29;20050;-74
2022/05/07 03:09:39;;;;;;;37.95;24.88;;;12.90;99.90;;;;;;4829790;29;20087;-74
2022/05/07 03:12:06;;;;;;;37.13;25.33;;;12.90;99.90;;;;;;4813726;29;20054;-74
2022/05/07 03:14:32;;;;;;;33.42;25.00;;;12.90;99.90;;;;;;4829946;29;20502;-74
2022/05/07 03:16:58;;;;;;;38.40;25.48;;;12.90;99.90;;;;;;4828928;29;20203;-74
2022/05/07 03:19:24;;;;;;;38.72;25.38;;;12.90;99.90;;;;;;4828786;29;20062;-74
2022/05/07 03:21:50;;;;;;;38.28;25.88;;;12.80;99.90;;;;;;4829813;29;20053;-74
2022/05/07 03:24:16;;;;;;;37.17;25.63;;;12.80;99.90;;;;;;4810117;29;20058;-74
2022/05/07 03:26:41;;;;;;;37.25;24.92;;;12.80;99.90;;;;;;4841087;29;20059;-74
2022/05/07 03:29:07;;;;;;;38.67;26.25;;;12.80;99.90;;;;;;4826800;29;20054;-74
2022/05/07 03:31:34;;;;;;;34.42;24.33;;;12.80;99.90;;;;;;4826685;29;20107;-74
2022/05/07 03:34:00;;;;;;;38.95;26.25;;;12.80;99.90;;;;;;4826614;29;20050;-74
2022/05/07 03:36:25;;;;;;;32.30;24.13;;;12.80;99.90;;;;;;4826577;29;20098;-74
2022/05/07 03:38:51;;;;;;;37.03;25.33;;;12.80;99.90;;;;;;4825458;29;20090;-74
2022/05/07 03:41:19;;;;;;;38.15;26.35;;;12.80;99.90;;;;;;4826606;29;20050;-74
2022/05/07 03:43:45;;;;;;;35.20;24.65;;;12.80;99.90;;;;;;4810537;29;20054;-74
2022/05/07 03:46:10;;;;;;;34.85;26.23;;;12.80;99.90;;;;;;4826369;29;20061;-74
2022/05/07 03:48:36;;;;;;;33.85;24.08;;;12.80;99.90;;;;;;4826531;29;20059;-75
2022/05/07 03:51:02;;;;;;;37.53;25.75;;;12.80;99.90;;;;;;4826466;29;20047;-74
2022/05/07 03:53:31;;;;;;;34.58;24.13;;;12.80;99.90;;;;;;4824634;29;20061;-74
2022/05/07 03:56:02;;;;;;;38.22;25.17;;;12.80;99.90;;;;;;4826197;29;20507;-74
2022/05/07 03:58:29;;;;;;;32.33;24.55;;;12.80;99.90;;;;;;4826537;29;20107;-74
2022/05/07 04:00:56;;;;;;;32.88;24.10;;;12.80;99.90;;;;;;4826312;29;20443;-74
2022/05/07 04:03:22;;;;;;;36.88;24.35;;;12.80;99.90;;;;;;4826256;29;20086;-74
2022/05/07 04:05:49;;;;;;;36.15;23.63;;;12.80;99.90;;;;;;4824863;29;20054;-74
2022/05/07 04:08:15;;;;;;;35.63;24.85;;;12.80;99.90;;;;;;4825927;29;20129;-74
2022/05/07 04:10:42;;;;;;;33.47;24.50;;;12.80;99.90;;;;;;4825485;29;20069;-73
2022/05/07 04:13:08;;;;;;;33.53;24.50;;;12.80;99.90;;;;;;4826403;29;20129;-74
2022/05/07 04:15:36;;;;;;;33.35;24.25;;;12.80;99.90;;;;;;4825856;29;20518;-74
2022/05/07 04:18:02;;;;;;;33.95;24.17;;;12.80;99.90;;;;;;4825938;29;20106;-74
2022/05/07 04:20:28;;;;;;;34.72;24.42;;;12.80;99.90;;;;;;4824845;29;20096;-74
2022/05/07 04:22:53;;;;;;;32.90;24.48;;;12.80;99.90;;;;;;4825453;29;20273;-74
2022/05/07 04:25:19;;;;;;;34.97;24.90;;;12.80;99.90;;;;;;4825132;29;20046;-74
2022/05/07 04:27:45;;;;;;;31.95;24.27;;;12.80;99.90;;;;;;4825650;29;20066;-73
2022/05/07 04:30:11;;;;;;;35.60;25.13;;;12.80;99.90;;;;;;4825738;29;20062;-74
2022/05/07 04:32:36;;;;;;;37.60;25.15;;;12.80;99.90;;;;;;4825862;29;20058;-73
2022/05/07 04:35:02;;;;;;;36.33;24.55;;;12.80;99.90;;;;;;4825219;29;20058;-74
2022/05/07 04:37:28;;;;;;;37.63;25.88;;;12.80;99.90;;;;;;4826234;29;20050;-73
2022/05/07 04:39:54;;;;;;;35.72;24.30;;;12.80;99.90;;;;;;4810210;29;20056;-73
2022/05/07 04:42:19;;;;;;;37.10;24.80;;;12.80;99.90;;;;;;4824437;29;20483;-74
2022/05/07 04:44:45;;;;;;;35.17;24.85;;;12.80;99.90;;;;;;4825585;29;20054;-73
2022/05/07 04:47:10;;;;;;;34.97;23.90;;;12.90;99.90;;;;;;4825431;29;20050;-73
2022/05/07 04:49:36;;;;;;;31.30;23.73;;;12.90;99.90;;;;;;4809264;29;20055;-74
2022/05/07 04:52:05;;;;;;;33.13;24.27;;;12.90;99.90;;;;;;4825574;29;20058;-73
2022/05/07 04:54:32;;;;;;;33.22;23.70;;;12.90;99.90;;;;;;4825060;29;20046;-74
2022/05/07 04:56:58;;;;;;;33.30;23.70;;;12.90;99.90;;;;;;4839501;29;20046;-74
2022/05/07 04:59:24;;;;;;;32.35;24.45;;;13.00;99.90;;;;;;4825393;29;20102;-73
2022/05/07 05:01:49;;;;;;;37.13;24.42;;;13.00;99.90;;;;;;4825278;29;20484;-73
2022/05/07 05:04:15;;;;;;;34.08;24.45;;;13.00;99.90;;;;;;4808993;29;20054;-73
2022/05/07 05:06:41;;;;;;;33.40;24.42;;;13.00;99.90;;;;;;4825247;29;20053;-74
2022/05/07 05:09:08;;;;;;;35.70;24.20;;;13.00;99.90;;;;;;4794274;29;20065;-73
2022/05/07 05:11:34;;;;;;;27.35;21.65;;;13.10;99.90;;;;;;4824421;29;20572;-73
2022/05/07 05:14:00;;;;;;;31.17;22.67;;;13.10;99.90;;;;;;4824038;29;20415;-74
2022/05/07 05:16:26;;;;;;;29.40;23.38;;;13.10;99.90;;;;;;4825089;29;20054;-73
2022/05/07 05:18:52;;;;;;;29.38;23.42;;;13.20;99.90;;;;;;4823822;29;20046;-73
2022/05/07 05:21:18;;;;;;;30.02;23.08;;;13.20;99.90;;;;;;4825319;29;20061;-73
2022/05/07 05:23:46;;;;;;;31.25;22.13;;;13.20;99.90;;;;;;4808136;29;20058;-74
2022/05/07 05:26:15;;;;;;;31.17;22.70;;;13.20;99.90;;;;;;4838632;29;20082;-74
2022/05/07 05:28:42;;;;;;;32.30;22.70;;;13.30;99.90;;;;;;4825248;29;20127;-73
2022/05/07 05:31:09;;;;;;;33.60;23.95;;;13.30;99.90;;;;;;4823791;29;20080;-74
2022/05/07 05:33:35;;;;;;;31.92;24.17;;;13.30;99.90;;;;;;4824746;29;20057;-73
2022/05/07 05:36:01;;;;;;;33.05;24.33;;;13.40;99.90;;;;;;4824979;29;20381;-74
2022/05/07 05:38:26;;;;;;;33.35;22.58;;;13.40;99.90;;;;;;4823809;29;20085;-74
2022/05/07 05:40:52;;;;;;;34.53;23.88;;;13.40;99.90;;;;;;4824827;29;20046;-73
2022/05/07 05:43:18;;;;;;;28.52;21.77;;;13.40;99.90;;;;;;4824876;29;20411;-74
2022/05/07 05:45:44;;;;;;;31.55;22.48;;;13.40;99.90;;;;;;4823603;29;20058;-74
2022/05/07 05:48:10;;;;;;;32.65;22.98;;;13.50;99.90;;;;;;4823860;29;20062;-74
2022/05/07 05:50:35;;;;;;;30.15;21.95;;;13.50;99.90;;;;;;4823836;29;20103;-74
2022/05/07 05:53:01;;;;;;;30.42;21.73;;;13.50;99.90;;;;;;4824191;29;20050;-75
2022/05/07 05:55:29;;;;;;;29.33;21.00;;;13.60;99.90;;;;;;4838609;29;20046;-74
2022/05/07 05:57:56;;;;;;;32.70;22.73;;;13.60;99.90;;;;;;4824813;29;20086;-74
2022/05/07 06:00:22;;;;;;;29.63;22.13;;;13.60;99.90;;;;;;4823643;29;20062;-74
2022/05/07 06:02:47;;;;;;;29.10;21.70;;;13.70;99.90;;;;;;4824277;29;20050;-74
2022/05/07 06:05:15;;;;;;;29.95;21.55;;;13.80;99.90;;;;;;4823445;29;20411;-74
2022/05/07 06:07:41;;;;;;;30.73;21.60;;;13.80;99.90;;;;;;4823291;29;20435;-74
2022/05/07 06:10:07;;;;;;;29.73;21.13;;;13.80;99.90;;;;;;4823686;29;20050;-74
2022/05/07 06:12:33;;;;;;;27.25;20.33;;;13.80;99.90;;;;;;4824554;29;20108;-74
2022/05/07 06:14:59;;;;;;;31.13;21.00;;;13.90;99.90;;;;;;4824350;29;20137;-74
2022/05/07 06:17:28;;;;;;;26.60;20.70;;;13.90;99.90;;;;;;4823321;29;20629;-74
2022/05/07 06:19:53;;;;;;;29.38;21.38;;;13.90;99.90;;;;;;4824562;29;20054;-74
2022/05/07 06:22:19;;;;;;;28.27;21.17;;;14.00;99.90;;;;;;4823652;29;20058;-74
2022/05/07 06:27:31;;;;;;;27.95;21.08;;;14.00;99.90;;;;;;4824060;29;20077;-74
2022/05/07 06:29:58;;;;;;;30.15;20.80;;;14.00;99.90;;;;;;4824186;29;20089;-74
2022/05/07 06:32:31;;;;;;;30.10;20.58;;;14.10;99.90;;;;;;4824730;29;20107;-74
2022/05/07 06:34:56;;;;;;;27.42;20.08;;;14.10;99.90;;;;;;4823794;29;20054;-74
2022/05/07 06:37:22;;;;;;;25.80;19.58;;;14.10;99.90;;;;;;4823341;29;20129;-74
2022/05/07 06:39:48;;;;;;;26.02;20.42;;;14.20;99.90;;;;;;4824215;29;20097;-74
2022/05/07 06:42:15;;;;;;;25.80;19.75;;;14.20;99.90;;;;;;4824125;29;20077;-74
2022/05/07 06:44:41;;;;;;;27.73;20.08;;;14.20;99.90;;;;;;4824760;29;20055;-74
2022/05/07 06:47:07;;;;;;;27.73;20.83;;;14.20;99.90;;;;;;4824645;29;20086;-74
2022/05/07 06:49:33;;;;;;;24.88;19.58;;;14.30;99.90;;;;;;4824300;29;20097;-74
2022/05/07 06:51:58;;;;;;;30.85;21.05;;;14.30;99.90;;;;;;4823255;29;20406;-74
2022/05/07 06:54:24;;;;;;;25.58;19.10;;;14.40;99.90;;;;;;4823485;29;20046;-75
2022/05/07 06:56:50;;;;;;;28.70;21.05;;;14.40;99.90;;;;;;4823912;29;20130;-74
2022/05/07 06:59:16;;;;;;;29.80;21.83;;;14.40;99.90;;;;;;4825837;29;20380;-74
2022/05/07 07:01:42;;;;;;;27.45;20.95;;;14.40;99.90;;;;;;4827447;29;20046;-75
2022/05/07 07:04:07;;;;;;;37.97;22.38;;;14.40;99.90;;;;;;4822210;29;20115;-75
2022/05/07 07:06:33;;;;;;;28.73;21.10;;;14.40;99.90;;;;;;4818640;29;20391;-75
2022/05/07 07:08:59;;;;;;;30.90;22.65;;;14.50;99.90;;;;;;4824347;29;20042;-74
2022/05/07 07:11:25;;;;;;;28.08;20.73;;;14.50;99.90;;;;;;4825973;29;20149;-74
2022/05/07 07:13:51;;;;;;;27.95;20.13;;;14.50;99.90;;;;;;4826914;29;20503;-75
2022/05/07 07:16:18;;;;;;;27.35;19.40;;;14.50;99.90;;;;;;4811281;29;20056;-75
2022/05/07 07:18:44;;;;;;;29.15;21.48;;;14.50;99.90;;;;;;4825921;29;20089;-75
2022/05/07 07:21:11;;;;;;;31.13;21.30;;;14.60;99.90;;;;;;4826960;29;20090;-75
2022/05/07 07:23:37;;;;;;;25.48;20.05;;;14.60;99.90;;;;;;4826582;29;20095;-76
2022/05/07 07:26:04;;;;;;;26.17;19.15;;;14.60;99.90;;;;;;4826624;29;20110;-75
2022/05/07 07:28:31;;;;;;;27.58;20.05;;;14.70;99.90;;;;;;4827088;29;20114;-75
2022/05/07 07:30:58;;;;;;;27.52;20.13;;;14.70;99.90;;;;;;4826977;29;20082;-75
2022/05/07 07:33:24;;;;;;;26.60;19.73;;;14.80;99.90;;;;;;4826934;29;20154;-74
2022/05/07 07:35:50;;;;;;;26.60;19.50;;;14.80;99.90;;;;;;4825871;29;20092;-74
2022/05/07 07:38:16;;;;;;;28.00;19.85;;;14.90;99.90;;;;;;4805044;29;20058;-75
2022/05/07 07:40:43;;;;;;;26.95;19.75;;;14.90;99.90;;;;;;4819252;29;20057;-75
2022/05/07 07:43:10;;;;;;;25.70;19.42;;;15.00;99.90;;;;;;4814876;29;20058;-75
2022/05/07 07:48:21;;;;;;;29.48;19.98;;;15.10;99.90;;;;;;4815923;29;20057;-75
2022/05/07 07:50:49;;;;;;;24.50;18.25;;;15.20;99.90;;;;;;4811635;29;20151;-74
2022/05/07 07:53:14;;;;;;;25.00;18.65;;;15.20;99.90;;;;;;4822791;29;20049;-75
2022/05/07 07:55:40;;;;;;;26.13;19.58;;;15.30;99.90;;;;;;4827160;29;20067;-74
2022/05/07 07:58:09;;;;;;;26.85;18.95;;;15.30;99.90;;;;;;4812556;29;20060;-75
2022/05/07 08:00:36;;;;;;;25.20;19.52;;;15.40;99.90;;;;;;4811154;29;20054;-75
2022/05/07 08:03:05;;;;;;;25.08;19.48;;;15.40;99.90;;;;;;4808779;29;20314;-75
2022/05/07 08:05:36;;;;;;;24.27;19.15;;;15.50;99.90;;;;;;4812591;29;20181;-75
2022/05/07 08:13:53;;;;;;;25.63;18.58;;;15.70;99.90;;;;;;4789043;29;20133;-75
2022/05/07 08:16:20;;;;;;;23.60;17.75;;;15.70;99.90;;;;;;4793522;29;20062;-76
2022/05/07 08:18:47;;;;;;;25.95;17.92;;;15.70;99.90;;;;;;4814173;29;20078;-75
2022/05/07 08:21:16;;;;;;;20.70;17.10;;;15.80;99.90;;;;;;4813255;29;20057;-75
2022/05/07 08:23:42;;;;;;;21.55;17.75;;;15.80;99.90;;;;;;4810336;29;20093;-75
2022/05/07 08:26:09;;;;;;;22.38;17.40;;;15.90;99.90;;;;;;4807668;29;20050;-74
2022/05/07 08:28:38;;;;;;;20.50;16.23;;;15.90;99.90;;;;;;4824948;29;20073;-75
2022/05/07 08:31:07;;;;;;;21.35;16.35;;;15.90;99.90;;;;;;4808971;29;20074;-75
2022/05/07 08:33:34;;;;;;;21.13;16.48;;;15.90;99.90;;;;;;4812858;29;20058;-74
2022/05/07 08:36:00;;;;;;;22.48;16.38;;;16.10;99.90;;;;;;4813097;29;20050;-73
2022/05/07 08:38:26;;;;;;;24.55;17.13;;;16.10;99.90;;;;;;4814317;29;20073;-73
2022/05/07 08:40:52;;;;;;;22.05;17.15;;;16.10;99.90;;;;;;4813910;29;20045;-73
2022/05/07 08:43:19;;;;;;;20.90;14.55;;;16.10;99.90;;;;;;4814564;29;20145;-73
2022/05/07 08:45:45;;;;;;;19.92;14.65;;;16.20;99.90;;;;;;4808596;29;20117;-73
2022/05/07 08:48:11;;;;;;;20.48;15.77;;;16.10;99.90;;;;;;4800309;29;20054;-73
2022/05/07 08:50:39;;;;;;;23.15;16.10;;;16.20;99.90;;;;;;4810871;29;20061;-75
2022/05/07 08:53:05;;;;;;;21.27;16.00;;;16.30;99.90;;;;;;4812121;29;20130;-75
2022/05/07 08:55:31;;;;;;;21.95;15.55;;;16.30;99.90;;;;;;4806818;29;20899;-76
2022/05/07 08:57:57;;;;;;;23.85;17.40;;;16.40;99.90;;;;;;4808700;29;20058;-76
2022/05/07 09:00:25;;;;;;;20.20;16.15;;;16.50;99.90;;;;;;4808883;29;20093;-76
2022/05/07 09:02:59;;;;;;;19.17;16.38;;;16.60;99.90;;;;;;4813936;29;20128;-76
2022/05/07 09:05:36;;;;;;;19.58;15.57;;;16.80;99.90;;;;;;4817090;29;20061;-77
2022/05/07 09:08:04;;;;;;;18.73;14.38;;;16.80;99.90;;;;;;4812002;29;20128;-75
2022/05/07 09:10:31;;;;;;;19.60;14.45;;;17.00;99.90;;;;;;4809245;29;20046;-76
2022/05/07 09:13:14;;;;;;;17.00;14.43;;;17.00;99.90;;;;;;4812903;29;20525;-77
2022/05/07 09:15:54;;;;;;;20.05;15.13;;;17.10;99.90;;;;;;4811779;29;20106;-77
2022/05/07 09:18:21;;;;;;;19.75;15.15;;;17.20;99.90;;;;;;4810010;29;20066;-77
2022/05/07 09:21:16;;;;;;;18.45;15.20;;;17.20;99.90;;;;;;4811118;29;20046;-76
2022/05/07 09:24:13;;;;;;;19.08;14.68;;;17.30;99.90;;;;;;4806047;29;20057;-76
2022/05/07 09:26:40;;;;;;;21.17;14.50;;;17.30;99.90;;;;;;4792867;29;20066;-75
2022/05/07 09:29:11;;;;;;;19.58;14.50;;;17.40;99.90;;;;;;4815515;29;20069;-77
2022/05/07 09:31:41;;;;;;;18.38;13.27;;;17.40;99.90;;;;;;4811745;29;20451;-76
2022/05/07 09:37:19;;;;;;;18.77;14.20;;;17.30;99.90;;;;;;4808801;29;20050;-74
2022/05/07 09:39:50;;;;;;;20.45;14.68;;;17.30;99.90;;;;;;4810685;29;20066;-74
2022/05/07 09:42:18;;;;;;;26.75;18.25;;;17.20;99.90;;;;;;4813542;29;20058;-77
2022/05/07 09:44:45;;;;;;;25.88;19.73;;;17.40;99.90;;;;;;4807787;29;20511;-75
2022/05/07 09:47:12;;;;;;;28.38;20.48;;;17.20;99.90;;;;;;4821318;29;20854;-75
2022/05/07 09:52:32;;;;;;;30.63;21.45;;;17.10;99.90;;;;;;4814266;29;20085;-74
2022/05/07 09:57:43;;;;;;;28.23;20.98;;;17.00;99.90;;;;;;4813192;29;20050;-78
2022/05/07 10:00:13;;;;;;;29.50;20.10;;;17.00;99.90;;;;;;4805189;29;20051;-73
2022/05/07 10:02:54;;;;;;;28.52;20.27;;;16.90;99.90;;;;;;4809888;29;20574;-78
2022/05/07 10:05:58;;;;;;;28.00;19.02;;;16.90;99.90;;;;;;4808983;29;20282;-75
2022/05/07 10:08:52;;;;;;;24.77;17.90;;;16.90;99.90;;;;;;4802189;29;20264;-74
2022/05/07 10:11:18;;;;;;;27.42;19.15;;;16.90;99.90;;;;;;4808871;29;20065;-77
2022/05/07 10:13:55;;;;;;;23.65;16.75;;;16.90;99.90;;;;;;4821898;29;20487;-74
2022/05/07 10:16:22;;;;;;;23.58;16.35;;;17.00;99.90;;;;;;4809413;29;20080;-76
2022/05/07 10:18:48;;;;;;;19.83;14.15;;;17.00;99.90;;;;;;4808314;29;20054;-75
2022/05/07 10:21:18;;;;;;;25.35;17.65;;;17.00;99.90;;;;;;4808922;29;20440;-75
2022/05/07 10:23:52;;;;;;;20.05;16.45;;;17.10;99.90;;;;;;4807740;29;20499;-75
2022/05/07 10:26:19;;;;;;;22.80;17.15;;;17.20;99.90;;;;;;4814091;29;20054;-75
2022/05/07 10:28:45;;;;;;;23.02;16.63;;;17.20;99.90;;;;;;4809749;29;20137;-75
2022/05/07 10:31:20;;;;;;;26.45;18.08;;;17.20;99.90;;;;;;4811949;29;20046;-77
2022/05/07 10:33:46;;;;;;;27.67;18.77;;;17.20;99.90;;;;;;4809106;29;20601;-75
2022/05/07 10:36:14;;;;;;;26.50;17.67;;;17.20;99.90;;;;;;4810024;29;20054;-76
2022/05/07 10:38:42;;;;;;;27.77;19.17;;;17.30;99.90;;;;;;4809134;29;20066;-74
2022/05/07 10:41:16;;;;;;;26.10;18.70;;;17.30;99.90;;;;;;4813717;29;20065;-75
2022/05/07 10:43:47;;;;;;;25.85;18.45;;;17.20;99.90;;;;;;4810479;29;20050;-76
2022/05/07 10:46:22;;;;;;;26.48;18.75;;;17.30;99.90;;;;;;4811808;29;20047;-75
2022/05/07 10:49:01;;;;;;;26.13;18.02;;;17.30;99.90;;;;;;4813449;29;20046;-75
2022/05/07 10:51:31;;;;;;;26.83;18.95;;;17.30;99.90;;;;;;4812404;29;20582;-74
2022/05/07 10:54:03;;;;;;;26.33;18.27;;;17.30;99.90;;;;;;4815106;29;20061;-76
2022/05/07 10:56:32;;;;;;;29.45;19.48;;;17.30;99.90;;;;;;4815778;29;20073;-75
2022/05/07 10:58:58;;;;;;;28.00;19.80;;;17.30;99.90;;;;;;4809269;29;20042;-75
2022/05/07 11:01:26;;;;;;;28.90;19.45;;;17.30;99.90;;;;;;4806507;29;20066;-75
2022/05/07 11:04:06;;;;;;;29.00;20.63;;;17.40;99.90;;;;;;4812778;29;20122;-76
2022/05/07 11:06:53;;;;;;;25.85;18.92;;;17.30;99.90;;;;;;4810682;29;20046;-75
2022/05/07 11:09:24;;;;;;;28.75;19.52;;;17.30;99.90;;;;;;4812751;29;20069;-76
2022/05/07 11:11:55;;;;;;;25.20;19.00;;;17.30;99.90;;;;;;4813308;29;20065;-76
2022/05/07 11:14:32;;;;;;;29.25;18.73;;;17.30;99.90;;;;;;4812004;29;20066;-76
2022/05/07 11:17:00;;;;;;;28.92;19.90;;;17.30;99.90;;;;;;4815345;29;20061;-77
2022/05/07 11:19:30;;;;;;;27.48;18.63;;;17.40;99.90;;;;;;4815494;29;20058;-77
2022/05/07 11:21:57;;;;;;;28.60;20.00;;;17.40;99.90;;;;;;4814633;29;20526;-77
2022/05/07 11:24:27;;;;;;;33.40;19.58;;;17.50;99.90;;;;;;4815405;29;20051;-78
2022/05/07 11:26:55;;;;;;;26.92;18.52;;;17.40;99.90;;;;;;4792951;29;20080;-77
2022/05/07 11:29:21;;;;;;;27.35;18.70;;;17.50;99.90;;;;;;4810946;29;20058;-78
2022/05/07 11:31:56;;;;;;;27.02;18.52;;;17.50;99.90;;;;;;4812348;29;20102;-78
2022/05/07 11:34:33;;;;;;;24.30;18.60;;;17.50;99.90;;;;;;4814182;29;20059;-76
2022/05/07 11:37:19;;;;;;;25.45;18.40;;;17.50;99.90;;;;;;4807524;29;20053;-77
2022/05/07 11:39:58;;;;;;;25.38;18.00;;;17.50;99.90;;;;;;4811642;29;20053;-76
2022/05/07 11:42:45;;;;;;;25.95;18.58;;;17.50;99.90;;;;;;4814733;29;20481;-76
2022/05/07 11:45:29;;;;;;;26.52;19.05;;;17.50;99.90;;;;;;4802781;29;20050;-76
2022/05/07 11:48:07;;;;;;;25.92;18.40;;;17.50;99.90;;;;;;4811517;29;20518;-75
2022/05/07 11:50:41;;;;;;;23.90;17.80;;;17.40;99.90;;;;;;4812451;29;20046;-74
2022/05/07 11:53:26;;;;;;;24.05;18.70;;;17.40;99.90;;;;;;4813538;29;20301;-74
2022/05/07 11:55:52;;;;;;;26.25;19.42;;;17.50;99.90;;;;;;4813170;29;20050;-74
2022/05/07 11:58:23;;;;;;;26.08;19.42;;;17.50;99.90;;;;;;4809660;29;20074;-74
2022/05/07 12:00:51;;;;;;;20.20;14.10;;;17.50;99.90;;;;;;4796201;29;20054;-73
2022/05/07 12:03:23;;;;;;;18.27;12.10;;;17.50;99.90;;;;;;4809449;29;20055;-74
2022/05/07 12:05:51;;;;;;;16.52;10.88;;;17.40;99.90;;;;;;4814213;29;20153;-75
2022/05/07 12:08:20;;;;;;;16.77;11.32;;;17.40;99.90;;;;;;4806571;29;20145;-75
2022/05/07 12:10:48;;;;;;;16.10;10.55;;;17.30;99.90;;;;;;4808354;29;20579;-75
2022/05/07 12:13:15;;;;;;;15.95;10.70;;;17.30;99.90;;;;;;4810891;29;20128;-76
2022/05/07 12:18:29;;;;;;;14.18;10.43;;;17.20;99.90;;;;;;4814687;29;20050;-75
2022/05/07 12:20:56;;;;;;;13.60;10.02;;;17.20;99.90;;;;;;4809016;29;20125;-74
2022/05/07 12:31:42;;;;;;;12.55;8.45;;;17.30;99.90;;;;;;4811190;29;21375;-72
2022/05/07 12:34:08;;;;;;;13.05;9.02;;;17.30;99.90;;;;;;4808723;29;20050;-74
2022/05/07 12:36:34;;;;;;;14.10;9.57;;;17.30;99.90;;;;;;4810162;29;20668;-75
2022/05/07 12:39:00;;;;;;;14.00;9.18;;;17.30;99.90;;;;;;4813428;29;20121;-75
2022/05/07 12:41:26;;;;;;;14.43;8.88;;;17.30;99.90;;;;;;4797302;29;20064;-74
2022/05/07 12:43:53;;;;;;;9.98;7.53;;;17.40;99.90;;;;;;4810691;29;20054;-78
2022/05/07 12:46:19;;;;;;;9.80;7.15;;;17.30;99.90;;;;;;4809660;29;20042;-77
2022/05/07 12:48:45;;;;;;;11.00;6.88;;;17.30;99.90;;;;;;4812413;29;20122;-76
2022/05/07 12:51:12;;;;;;;9.98;7.53;;;17.20;99.90;;;;;;4809501;29;20506;-76
2022/05/07 12:53:37;;;;;;;10.65;7.15;;;17.20;99.90;;;;;;4808127;29;20115;-75
2022/05/07 12:56:07;;;;;;;11.52;7.75;;;17.10;99.90;;;;;;4816530;29;20050;-75
2022/05/07 12:58:33;;;;;;;11.98;8.20;;;17.20;99.90;;;;;;4810128;29;20054;-74
2022/05/07 13:01:00;;;;;;;11.77;8.38;;;17.20;99.90;;;;;;4805854;29;20673;-76
2022/05/07 13:03:26;;;;;;;11.38;8.52;;;17.20;99.90;;;;;;4811123;29;20058;-73
2022/05/07 13:05:52;;;;;;;12.18;8.80;;;17.20;99.90;;;;;;4807802;29;20065;-77
2022/05/07 13:08:18;;;;;;;11.93;8.13;;;17.20;99.90;;;;;;4809191;29;20125;-74